createdAt,value
2022-11-06T00:02:21.346Z,10.53
2022-11-06T00:04:48.442Z,13.13
2022-11-06T00:07:15.154Z,11.83
2022-11-06T00:09:41.823Z,11.23
2022-11-06T00:12:08.465Z,13.67
2022-11-06T00:14:35.502Z,10.73
2022-11-06T00:17:02.152Z,13.43
2022-11-06T00:19:29.126Z,11.40
2022-11-06T00:21:55.868Z,9.20
2022-11-06T00:24:22.558Z,12.10
2022-11-06T00:26:54.163Z,9.57
2022-11-06T00:29:21.224Z,12.10
2022-11-06T13:02:33.547Z,5.30
2022-11-06T13:05:24.682Z,8.30
2022-11-06T13:08:16.160Z,4.70
2022-11-06T13:10:58.569Z,6.93
2022-11-06T13:13:37.837Z,13.40
2022-11-06T13:16:27.426Z,10.37
2022-11-06T13:19:00.784Z,14.23
2022-11-06T13:21:49.087Z,7.57
2022-11-06T13:24:26.155Z,10.17
2022-11-06T13:27:14.947Z,19.00
2022-11-06T13:29:43.954Z,11.37
2022-11-06T13:32:24.667Z,6.90
2022-11-06T13:34:54.299Z,4.53
2022-11-06T13:37:42.000Z,6.57
2022-11-06T13:40:37.890Z,5.00
2022-11-06T13:43:11.113Z,4.30
2022-11-06T13:45:46.579Z,7.47
2022-11-06T13:48:52.734Z,6.43
2022-11-06T13:51:52.421Z,5.07
2022-11-06T13:54:42.867Z,5.73
2022-11-06T13:57:21.783Z,5.33
2022-11-06T14:00:12.757Z,3.97
2022-11-06T14:03:07.482Z,6.13
2022-11-06T14:06:05.614Z,5.83
2022-11-06T14:08:41.291Z,7.23
2022-11-06T14:11:14.716Z,7.30
2022-11-06T14:13:42.125Z,9.37
2022-11-06T14:16:14.858Z,4.60
2022-11-06T14:18:42.300Z,6.30
2022-11-06T14:21:36.247Z,6.50
2022-11-06T14:24:16.812Z,7.60
2022-11-06T14:26:49.312Z,9.93
2022-11-06T14:29:30.896Z,7.67
2022-11-06T14:32:14.466Z,6.20
2022-11-06T14:34:43.155Z,7.10
2022-11-06T14:37:33.088Z,4.33
2022-11-06T14:40:02.813Z,6.80
2022-11-06T14:42:43.627Z,12.33
2022-11-06T14:45:14.733Z,8.23
2022-11-06T14:47:52.687Z,9.00
2022-11-06T14:50:19.239Z,6.60
2022-11-06T14:53:26.786Z,9.57
2022-11-06T14:56:19.122Z,10.90
2022-11-06T14:58:53.952Z,14.70
2022-11-06T15:01:37.721Z,9.37
2022-11-06T15:04:19.434Z,8.97
2022-11-06T15:06:49.886Z,9.47
2022-11-06T15:09:28.760Z,10.50
2022-11-06T15:12:02.205Z,3.60
2022-11-06T15:14:29.059Z,4.40
2022-11-06T15:17:04.442Z,3.57
2022-11-06T15:19:51.430Z,8.43
2022-11-06T15:22:43.851Z,5.60
2022-11-06T15:25:27.478Z,2.40
2022-11-06T15:28:20.627Z,8.47
2022-11-06T15:30:50.726Z,12.53
2022-11-06T15:33:28.645Z,9.60
2022-11-06T15:35:58.692Z,8.17
2022-11-06T15:38:38.124Z,6.97
2022-11-06T15:41:07.186Z,5.00
2022-11-06T15:43:37.489Z,6.90
2022-11-06T15:46:06.983Z,9.60
2022-11-06T15:48:35.474Z,4.37
2022-11-06T15:51:24.627Z,9.20
2022-11-06T15:53:51.774Z,8.10
2022-11-06T15:56:22.851Z,12.40
2022-11-06T15:59:06.049Z,12.93
2022-11-06T16:01:33.844Z,14.70
2022-11-06T16:04:05.581Z,15.67
2022-11-06T16:06:33.027Z,12.77
2022-11-06T16:09:01.893Z,9.40
2022-11-06T16:11:29.557Z,6.70
2022-11-06T16:13:56.758Z,10.03
2022-11-06T16:16:39.101Z,9.50
2022-11-06T16:19:36.376Z,21.10
2022-11-06T16:22:12.960Z,13.10
2022-11-06T16:24:54.892Z,6.13
2022-11-06T16:27:23.564Z,6.77
2022-11-06T16:30:06.137Z,4.60
2022-11-06T16:32:39.309Z,4.80
2022-11-06T16:35:32.592Z,6.33
2022-11-06T16:38:42.272Z,4.10
2022-11-06T16:41:10.516Z,4.90
2022-11-06T16:43:37.810Z,3.83
2022-11-06T16:46:08.096Z,6.70
2022-11-06T16:48:42.279Z,2.60
2022-11-06T16:51:14.575Z,5.20
2022-11-06T16:53:59.586Z,5.70
2022-11-06T16:56:32.768Z,14.20
2022-11-06T16:59:14.664Z,17.80
2022-11-06T17:01:44.692Z,19.80
2022-11-06T17:04:21.055Z,6.83
2022-11-06T17:06:48.589Z,5.60
2022-11-06T17:09:34.315Z,8.33
2022-11-06T17:12:02.656Z,4.90
2022-11-06T17:14:30.530Z,11.00
2022-11-06T17:17:00.225Z,9.83
2022-11-06T17:19:28.662Z,11.40
2022-11-06T17:21:55.766Z,4.43
2022-11-06T17:24:38.338Z,4.10
2022-11-06T17:27:05.935Z,18.07
2022-11-06T17:29:34.183Z,24.77
2022-11-06T17:32:00.784Z,16.37
2022-11-06T17:34:27.611Z,16.73
2022-11-06T17:36:54.297Z,18.77
2022-11-06T17:39:22.440Z,18.57
2022-11-06T17:41:49.054Z,24.83
2022-11-06T17:44:16.828Z,18.23
2022-11-06T17:46:45.632Z,18.00
2022-11-06T17:49:17.448Z,16.33
2022-11-06T17:51:53.308Z,17.67
2022-11-06T17:54:26.274Z,19.83
2022-11-06T17:56:54.801Z,15.20
2022-11-06T17:59:25.417Z,10.60
2022-11-06T18:01:53.585Z,8.80
2022-11-06T18:04:22.109Z,13.33
2022-11-06T18:06:51.963Z,15.00
2022-11-06T18:09:20.035Z,16.37
2022-11-06T18:11:50.031Z,12.23
2022-11-06T18:14:17.442Z,10.37
2022-11-06T18:16:45.592Z,11.17
2022-11-06T18:19:15.796Z,9.73
2022-11-06T18:21:42.781Z,7.03
2022-11-06T18:24:09.972Z,6.50
2022-11-06T18:26:39.480Z,12.10
2022-11-06T18:29:07.340Z,18.20
2022-11-06T18:31:34.394Z,15.57
2022-11-06T18:34:01.590Z,8.47
2022-11-06T18:36:28.280Z,13.20
2022-11-06T18:38:55.081Z,21.17
2022-11-06T18:41:22.781Z,15.13
2022-11-06T18:43:50.482Z,15.47
2022-11-06T18:46:18.973Z,11.67
2022-11-06T18:48:45.760Z,8.30
2022-11-06T18:51:33.363Z,6.23
2022-11-06T18:54:05.402Z,11.20
2022-11-06T18:56:33.174Z,7.40
2022-11-06T18:59:00.366Z,8.57
2022-11-06T19:01:27.845Z,6.77
2022-11-06T19:03:54.773Z,7.70
2022-11-06T19:06:23.815Z,11.27
2022-11-06T19:08:50.518Z,7.87
2022-11-06T19:11:18.692Z,6.23
2022-11-06T19:13:48.333Z,4.40
2022-11-06T19:16:18.467Z,5.17
2022-11-06T19:18:46.172Z,8.27
2022-11-06T19:21:13.300Z,7.63
2022-11-06T19:23:42.241Z,8.13
2022-11-06T19:29:00.652Z,4.03
2022-11-06T19:31:29.553Z,4.50
2022-11-06T19:33:59.399Z,5.30
2022-11-06T19:36:26.929Z,4.83
2022-11-06T19:38:54.147Z,6.57
2022-11-06T19:41:21.948Z,4.00
2022-11-06T19:43:49.770Z,5.37
2022-11-06T19:46:24.949Z,4.93
2022-11-06T19:48:53.130Z,5.73
2022-11-06T19:51:20.271Z,3.97
2022-11-06T19:53:46.953Z,3.40
2022-11-06T19:56:17.549Z,6.30
2022-11-06T19:58:44.246Z,4.33
2022-11-06T20:01:15.726Z,5.67
2022-11-06T20:03:42.922Z,3.23
2022-11-06T20:06:11.554Z,6.00
2022-11-06T20:08:38.788Z,3.30
2022-11-06T20:11:13.126Z,8.10
2022-11-06T20:13:44.560Z,7.03
2022-11-06T20:16:14.291Z,5.30
2022-11-06T20:18:41.288Z,5.13
2022-11-06T20:21:11.761Z,4.40
2022-11-06T20:23:38.913Z,4.27
2022-11-06T20:26:06.038Z,6.30
2022-11-06T20:28:33.718Z,4.10
2022-11-06T20:31:05.527Z,6.23
2022-11-06T20:33:32.885Z,3.47
2022-11-06T20:36:07.991Z,4.27
2022-11-06T20:38:34.820Z,3.80
2022-11-06T20:41:04.060Z,4.30
2022-11-06T20:43:31.428Z,4.90
2022-11-06T20:46:02.777Z,4.63
2022-11-06T20:48:31.159Z,5.03
2022-11-06T20:51:03.910Z,3.43
2022-11-06T20:53:31.131Z,4.60
2022-11-06T20:56:03.141Z,3.40
2022-11-06T20:58:30.679Z,4.23
2022-11-06T21:01:06.473Z,3.57
2022-11-06T21:03:34.063Z,4.80
